createdAt,value
2022-12-04T00:01:30.027Z,77.32
2022-12-04T00:04:00.709Z,71.38
2022-12-04T00:06:29.015Z,72.15
2022-12-04T00:08:57.722Z,73.28
2022-12-04T00:11:30.111Z,71.82
2022-12-04T00:14:06.799Z,69.57
2022-12-04T00:16:35.413Z,71.18
2022-12-04T00:19:03.300Z,70.22
2022-12-04T00:21:31.151Z,76.53
2022-12-04T00:23:58.740Z,72.25
2022-12-04T00:26:28.902Z,76.93
2022-12-04T00:28:57.027Z,73.40
2022-12-04T00:31:28.679Z,69.88
2022-12-04T00:36:26.668Z,71.30
2022-12-04T00:38:55.489Z,72.57
2022-12-04T00:41:26.210Z,73.00
2022-12-04T00:43:56.284Z,71.75
2022-12-04T00:46:24.102Z,72.35
2022-12-04T00:48:52.770Z,74.72
2022-12-04T00:51:25.255Z,69.63
2022-12-04T00:53:53.597Z,71.28
2022-12-04T00:56:26.614Z,76.65
2022-12-04T00:58:56.980Z,70.20
2022-12-04T01:01:27.342Z,72.93
2022-12-04T01:03:55.800Z,71.30
2022-12-04T01:06:31.075Z,71.90
2022-12-04T01:09:00.741Z,73.47
2022-12-04T01:11:30.164Z,66.15
2022-12-04T01:13:58.597Z,66.40
2022-12-04T01:16:31.597Z,69.88
2022-12-04T01:19:00.487Z,72.03
2022-12-04T01:21:28.323Z,71.80
2022-12-04T01:23:55.785Z,74.47
2022-12-04T01:26:23.245Z,69.13
2022-12-04T01:28:50.682Z,73.35
2022-12-04T01:31:21.462Z,74.38
2022-12-04T01:33:50.925Z,71.17
2022-12-04T01:36:23.297Z,75.90
2022-12-04T01:38:51.325Z,72.20
2022-12-04T01:41:24.100Z,73.00
2022-12-04T01:44:18.936Z,72.13
2022-12-04T01:46:59.289Z,69.57
2022-12-04T01:49:47.839Z,72.63
2022-12-04T01:52:26.676Z,71.72
2022-12-04T01:55:01.215Z,69.70
2022-12-04T01:57:32.555Z,69.78
2022-12-04T02:00:16.253Z,71.85
2022-12-04T02:02:47.483Z,69.63
2022-12-04T02:05:21.460Z,77.03
2022-12-04T02:07:55.568Z,75.70
2022-12-04T02:10:35.833Z,73.05
2022-12-04T02:14:03.743Z,73.88
2022-12-04T02:16:43.590Z,71.30
2022-12-04T02:19:41.638Z,69.70
2022-12-04T02:22:50.401Z,73.00
2022-12-04T02:26:12.008Z,71.70
2022-12-04T02:29:24.715Z,74.95
2022-12-04T02:32:16.892Z,75.00
2022-12-04T02:35:06.233Z,72.18
2022-12-04T02:37:40.203Z,72.40
2022-12-04T02:40:31.755Z,74.50
2022-12-04T02:43:11.347Z,76.43
2022-12-04T02:45:46.674Z,72.15
2022-12-04T02:48:20.608Z,73.57
2022-12-04T02:50:54.824Z,69.95
2022-12-04T02:53:38.675Z,81.55
2022-12-04T02:56:16.211Z,71.05
2022-12-04T02:58:53.375Z,74.90
2022-12-04T03:01:28.967Z,77.20
2022-12-04T03:04:06.180Z,76.07
2022-12-04T03:06:40.145Z,75.03
2022-12-04T03:09:28.039Z,70.35
2022-12-04T03:12:28.797Z,72.43
2022-12-04T03:15:10.333Z,74.80
2022-12-04T03:17:55.257Z,71.28
2022-12-04T03:20:24.620Z,77.97
2022-12-04T03:23:03.185Z,68.30
2022-12-04T03:25:48.780Z,66.88
2022-12-04T03:28:42.527Z,73.07
2022-12-04T03:31:11.391Z,72.20
2022-12-04T03:33:46.220Z,72.20
2022-12-04T03:36:26.145Z,77.40
2022-12-04T03:39:19.352Z,74.95
2022-12-04T03:42:13.443Z,83.65
2022-12-04T03:45:07.681Z,75.38
2022-12-04T03:47:58.945Z,74.90
2022-12-04T03:50:49.685Z,78.97
2022-12-04T03:53:38.619Z,70.18
2022-12-04T03:56:15.244Z,78.75
2022-12-04T03:58:50.774Z,75.35
2022-12-04T04:01:30.211Z,73.55
2022-12-04T04:03:59.925Z,75.30
2022-12-04T04:06:37.434Z,78.45
2022-12-04T04:09:14.205Z,71.05
2022-12-04T04:11:54.465Z,78.43
2022-12-04T04:14:51.105Z,73.85
2022-12-04T04:17:46.361Z,68.20
2022-12-04T04:20:40.132Z,72.00
2022-12-04T04:23:30.503Z,76.13
2022-12-04T04:26:03.753Z,71.55
2022-12-04T04:28:39.261Z,71.35
2022-12-04T04:31:49.349Z,79.70
2022-12-04T04:35:02.637Z,73.25
2022-12-04T04:38:04.490Z,75.10
2022-12-04T04:41:13.834Z,79.10
2022-12-04T04:43:59.765Z,72.15
2022-12-04T04:46:34.450Z,74.00
2022-12-04T04:49:08.843Z,77.88
2022-12-04T04:51:37.722Z,73.13
2022-12-04T04:54:11.867Z,74.57
2022-12-04T04:56:45.261Z,75.28
2022-12-04T04:59:14.106Z,71.47
2022-12-04T05:01:44.865Z,72.75
2022-12-04T05:04:12.759Z,75.90
2022-12-04T05:06:40.256Z,71.80
2022-12-04T05:09:07.632Z,75.80
2022-12-04T05:11:35.221Z,78.75
2022-12-04T05:14:02.695Z,77.80
2022-12-04T05:16:30.178Z,73.43
2022-12-04T05:19:16.983Z,72.38
2022-12-04T05:21:44.450Z,80.18
2022-12-04T05:24:11.839Z,79.22
2022-12-04T05:26:39.387Z,74.05
2022-12-04T05:29:06.835Z,76.68
2022-12-04T05:31:34.326Z,70.30
2022-12-04T05:34:01.824Z,83.88
2022-12-04T05:36:29.223Z,73.75
2022-12-04T05:38:56.708Z,76.22
2022-12-04T05:41:24.335Z,74.97
2022-12-04T05:43:52.482Z,77.68
2022-12-04T05:46:19.915Z,74.10
2022-12-04T05:48:47.459Z,74.13
2022-12-04T05:51:14.940Z,72.82
2022-12-04T05:53:42.352Z,70.68
2022-12-04T05:56:10.532Z,72.38
2022-12-04T05:58:39.177Z,69.10
2022-12-04T06:01:18.333Z,72.47
2022-12-04T06:03:46.799Z,67.68
2022-12-04T06:06:22.193Z,70.03
2022-12-04T06:08:53.807Z,70.78
2022-12-04T06:11:26.628Z,64.53
2022-12-04T06:13:54.880Z,72.10
2022-12-04T06:16:29.770Z,64.72
2022-12-04T06:19:01.894Z,61.67
2022-12-04T06:21:32.006Z,63.03
2022-12-04T06:23:59.474Z,70.22
2022-12-04T06:26:27.531Z,69.95
2022-12-04T06:28:57.904Z,60.97
2022-12-04T06:31:27.964Z,62.45
2022-12-04T06:33:58.748Z,60.20
2022-12-04T06:36:26.532Z,61.60
2022-12-04T06:38:57.105Z,60.55
2022-12-04T06:41:27.033Z,63.65
2022-12-04T06:43:55.025Z,63.55
2022-12-04T06:46:27.167Z,62.15
2022-12-04T06:48:56.602Z,58.47
2022-12-04T06:51:31.612Z,58.70
2022-12-04T06:53:59.671Z,60.53
2022-12-04T06:56:31.039Z,62.60
2022-12-04T06:59:01.426Z,60.85
2022-12-04T07:01:32.135Z,59.00
2022-12-04T07:04:01.122Z,65.43
2022-12-04T07:06:37.958Z,60.80
2022-12-04T07:09:11.218Z,58.13
2022-12-04T07:11:41.388Z,61.90
2022-12-04T07:14:09.125Z,62.30
2022-12-04T07:16:40.623Z,57.72
2022-12-04T07:19:14.373Z,60.22
2022-12-04T07:21:43.500Z,60.00
2022-12-04T07:24:17.023Z,55.50
2022-12-04T07:26:47.059Z,54.47
2022-12-04T07:29:14.785Z,51.40
2022-12-04T07:31:55.061Z,54.85
2022-12-04T07:34:24.010Z,51.55
2022-12-04T07:36:53.941Z,53.78
2022-12-04T07:39:28.895Z,59.53
2022-12-04T07:42:20.994Z,55.38
2022-12-04T07:44:51.396Z,57.17
2022-12-04T07:47:31.567Z,58.95
2022-12-04T07:50:03.317Z,54.13
2022-12-04T07:52:30.840Z,51.78
2022-12-04T07:54:58.259Z,57.30
2022-12-04T07:57:25.682Z,56.17
2022-12-04T07:59:53.253Z,58.42
2022-12-04T08:02:20.961Z,55.22
2022-12-04T08:04:48.562Z,52.67
2022-12-04T08:07:16.256Z,50.70
2022-12-04T08:09:43.838Z,53.50
2022-12-04T08:12:11.234Z,49.80
2022-12-04T08:14:38.782Z,48.45
2022-12-04T08:17:06.231Z,53.17
2022-12-04T08:19:33.675Z,50.45
2022-12-04T08:22:01.135Z,51.20
2022-12-04T08:24:28.535Z,51.50
2022-12-04T08:26:55.999Z,48.35
2022-12-04T08:29:23.435Z,51.92
2022-12-04T08:31:50.911Z,46.10
2022-12-04T08:34:18.440Z,50.60
2022-12-04T08:36:46.001Z,51.53
2022-12-04T08:39:13.382Z,44.42
2022-12-04T08:41:40.900Z,46.53
2022-12-04T08:44:09.679Z,45.22
2022-12-04T08:46:37.297Z,47.40
2022-12-04T08:49:04.869Z,45.45
2022-12-04T08:51:35.425Z,46.42
2022-12-04T08:54:08.858Z,45.63
2022-12-04T08:56:37.558Z,38.38
2022-12-04T08:59:05.627Z,33.95
2022-12-04T09:01:33.073Z,37.08
2022-12-04T09:04:00.719Z,36.25
2022-12-04T09:06:28.161Z,36.85
2022-12-04T09:08:57.068Z,38.42
2022-12-04T09:11:28.018Z,34.83
2022-12-04T09:13:55.981Z,36.00
2022-12-04T09:16:25.868Z,36.15
2022-12-04T09:18:54.500Z,38.97
2022-12-04T09:21:24.780Z,35.53
2022-12-04T09:23:52.440Z,37.60
2022-12-04T09:26:33.046Z,37.50
2022-12-04T09:29:03.956Z,34.50
2022-12-04T09:31:32.610Z,37.65
2022-12-04T09:34:01.972Z,36.28
2022-12-04T09:36:30.139Z,35.50
2022-12-04T09:38:58.147Z,38.97
2022-12-04T09:41:49.531Z,37.63
2022-12-04T09:44:28.244Z,37.13
2022-12-04T09:47:04.924Z,39.03
2022-12-04T09:49:56.768Z,36.42
2022-12-04T09:55:37.273Z,37.03
2022-12-04T09:58:14.165Z,36.80
2022-12-04T10:00:46.107Z,38.22
2022-12-04T10:03:18.258Z,39.33
2022-12-04T10:05:49.874Z,35.65
2022-12-04T10:08:31.188Z,36.40
2022-12-04T10:11:10.203Z,39.55
2022-12-04T10:14:08.789Z,36.10
2022-12-04T10:17:33.140Z,36.53
2022-12-04T10:20:28.856Z,37.67
2022-12-04T10:23:37.580Z,36.30
2022-12-04T10:26:13.559Z,37.97
2022-12-04T10:28:56.941Z,37.55
2022-12-04T10:31:30.277Z,37.45
2022-12-04T10:34:18.917Z,34.35
2022-12-04T10:36:59.177Z,34.45
2022-12-04T10:39:37.893Z,33.00
2022-12-04T10:42:29.209Z,34.20
2022-12-04T10:44:57.305Z,34.88
2022-12-04T10:47:25.675Z,37.88
2022-12-04T10:50:16.031Z,34.35
2022-12-04T10:52:43.426Z,37.40
2022-12-04T10:55:12.486Z,35.13
2022-12-04T10:57:45.220Z,35.00
2022-12-04T11:00:32.394Z,34.58
2022-12-04T11:03:25.754Z,32.70
2022-12-04T11:05:58.530Z,34.50
2022-12-04T11:08:35.192Z,32.25
2022-12-04T11:11:08.160Z,32.13
2022-12-04T11:13:36.296Z,33.22
2022-12-04T11:16:06.399Z,33.25
2022-12-04T11:18:48.199Z,30.52
2022-12-04T11:21:24.596Z,37.22
2022-12-04T11:23:53.167Z,34.40
2022-12-04T11:26:38.248Z,30.95
2022-12-04T11:29:07.686Z,29.70
2022-12-04T11:31:35.397Z,35.20
2022-12-04T11:34:08.849Z,32.28
2022-12-04T11:36:41.931Z,32.03
2022-12-04T11:39:41.174Z,30.67
2022-12-04T11:42:29.929Z,32.00
2022-12-04T11:45:00.658Z,31.73
2022-12-04T11:47:32.936Z,29.33
2022-12-04T11:50:30.466Z,31.58
2022-12-04T11:53:26.223Z,30.50
2022-12-04T11:56:10.306Z,29.83
2022-12-04T11:59:07.095Z,34.08
2022-12-04T12:02:04.677Z,31.05
2022-12-04T12:05:21.324Z,29.60
2022-12-04T12:08:06.566Z,30.17
2022-12-04T12:11:10.617Z,28.02
2022-12-04T12:14:06.753Z,30.25
2022-12-04T12:16:58.181Z,28.25
2022-12-04T12:20:11.039Z,32.25
2022-12-04T12:23:18.187Z,30.55
2022-12-04T12:26:03.824Z,30.85
2022-12-04T12:29:43.209Z,29.13
2022-12-04T12:32:49.023Z,31.08
2022-12-04T12:35:29.724Z,29.38
2022-12-04T12:38:09.895Z,26.92
2022-12-04T12:40:44.796Z,29.90
2022-12-04T12:43:20.597Z,30.05
2022-12-04T12:46:14.044Z,28.25
2022-12-04T12:49:01.520Z,27.45
2022-12-04T12:51:45.788Z,26.63
2022-12-04T12:54:46.047Z,29.55
2022-12-04T12:57:33.803Z,27.02
2022-12-04T13:00:17.230Z,31.15
2022-12-04T13:02:53.780Z,27.50
2022-12-04T13:05:45.561Z,26.77
2022-12-04T13:11:56.131Z,28.60
2022-12-04T13:14:23.599Z,27.83
2022-12-04T13:16:58.842Z,30.50
2022-12-04T13:19:43.271Z,25.77
2022-12-04T13:22:41.430Z,28.45
2022-12-04T13:25:26.014Z,27.75
2022-12-04T13:28:29.541Z,29.58
2022-12-04T13:31:15.656Z,29.67
2022-12-04T13:34:33.499Z,28.42
2022-12-04T13:37:38.876Z,27.92
2022-12-04T13:40:28.252Z,27.75
2022-12-04T13:43:22.373Z,26.83
2022-12-04T13:45:53.368Z,26.95
2022-12-04T13:48:41.555Z,28.92
2022-12-04T13:51:17.814Z,27.10
2022-12-04T13:53:45.916Z,29.00
2022-12-04T13:56:30.635Z,29.92
2022-12-04T13:59:20.291Z,28.73
2022-12-04T14:02:06.606Z,27.92
2022-12-04T14:04:53.720Z,27.40
2022-12-04T14:07:30.476Z,28.40
2022-12-04T14:10:14.069Z,28.95
2022-12-04T14:12:56.138Z,29.25
2022-12-04T14:15:28.019Z,28.42
2022-12-04T14:18:13.916Z,28.63
2022-12-04T14:20:47.117Z,28.92
2022-12-04T14:23:26.194Z,29.33
2022-12-04T14:25:57.106Z,31.63
2022-12-04T14:28:26.325Z,29.17
2022-12-04T14:31:13.271Z,28.42
2022-12-04T14:33:58.935Z,28.67
2022-12-04T14:36:45.466Z,28.88
2022-12-04T14:39:26.643Z,30.65
2022-12-04T14:42:23.622Z,28.80
2022-12-04T14:44:59.879Z,27.38
2022-12-04T14:48:14.501Z,28.08
2022-12-04T14:50:59.850Z,26.73
2022-12-04T14:53:46.042Z,25.95
2022-12-04T14:56:22.011Z,24.30
2022-12-04T14:58:50.877Z,25.65
2022-12-04T15:01:38.340Z,30.17
2022-12-04T15:04:28.200Z,28.63
2022-12-04T15:07:00.146Z,24.38
2022-12-04T15:09:47.512Z,25.67
2022-12-04T15:12:36.231Z,30.27
2022-12-04T15:15:19.509Z,27.67
2022-12-04T15:17:56.232Z,26.67
2022-12-04T15:20:25.681Z,27.73
2022-12-04T15:22:58.957Z,27.10
2022-12-04T15:25:40.220Z,29.15
2022-12-04T15:28:30.386Z,27.73
2022-12-04T15:31:06.397Z,26.25
2022-12-04T15:33:38.931Z,25.88
2022-12-04T15:36:42.436Z,28.27
2022-12-04T15:39:22.488Z,26.45
2022-12-04T15:41:50.383Z,27.48
2022-12-04T15:44:38.057Z,28.67
2022-12-04T15:47:25.256Z,26.60
2022-12-04T15:49:54.623Z,26.67
2022-12-04T15:52:25.654Z,29.75
2022-12-04T15:55:12.067Z,29.70
2022-12-04T15:57:45.037Z,29.35
2022-12-04T16:00:25.660Z,31.60
2022-12-04T16:02:54.642Z,30.75
2022-12-04T16:05:21.890Z,28.20
2022-12-04T16:07:57.386Z,29.10
2022-12-04T16:10:29.530Z,28.45
2022-12-04T16:13:01.597Z,27.85
2022-12-04T16:15:42.101Z,33.30
2022-12-04T16:18:13.902Z,33.00
2022-12-04T16:20:41.686Z,32.58
2022-12-04T16:23:09.659Z,34.10
2022-12-04T16:25:37.059Z,32.75
2022-12-04T16:28:04.587Z,31.75
2022-12-04T16:30:34.939Z,32.15
2022-12-04T16:33:02.422Z,34.88
2022-12-04T16:35:31.480Z,33.78
2022-12-04T16:37:58.861Z,32.13
2022-12-04T16:40:26.269Z,32.35
2022-12-04T16:42:53.716Z,41.42
2022-12-04T16:45:33.079Z,35.80
2022-12-04T16:48:00.806Z,32.72
2022-12-04T16:50:28.387Z,33.00
2022-12-04T16:52:55.760Z,35.22
2022-12-04T16:55:33.307Z,36.60
2022-12-04T16:58:00.710Z,35.70
2022-12-04T17:00:28.547Z,43.80
2022-12-04T17:02:56.785Z,38.47
2022-12-04T17:05:29.974Z,36.70
2022-12-04T17:07:59.283Z,37.58
2022-12-04T17:10:26.733Z,37.03
2022-12-04T17:12:54.993Z,38.58
2022-12-04T17:15:22.915Z,39.13
2022-12-04T17:17:50.949Z,39.80
2022-12-04T17:20:21.302Z,36.92
2022-12-04T17:22:49.543Z,41.15
2022-12-04T17:25:18.186Z,37.97
2022-12-04T17:27:45.613Z,42.83
2022-12-04T17:30:14.040Z,41.70
2022-12-04T17:32:41.850Z,39.53
2022-12-04T17:35:12.289Z,41.60
2022-12-04T17:37:39.796Z,42.28
2022-12-04T17:40:14.259Z,38.50
2022-12-04T17:42:45.092Z,44.75
2022-12-04T17:45:14.322Z,39.20
2022-12-04T17:47:42.184Z,40.55
2022-12-04T17:50:10.177Z,38.10
2022-12-04T17:52:37.563Z,40.40
2022-12-04T17:55:05.517Z,37.47
2022-12-04T17:57:33.083Z,33.60
2022-12-04T18:00:00.781Z,35.72
2022-12-04T18:02:28.329Z,36.08
2022-12-04T18:04:56.406Z,38.97
2022-12-04T18:07:23.945Z,35.72
2022-12-04T18:09:51.314Z,38.30
2022-12-04T18:12:18.820Z,34.95
2022-12-04T18:14:46.412Z,38.25
2022-12-04T18:17:13.962Z,41.17
2022-12-04T18:19:41.627Z,37.05
2022-12-04T18:22:09.328Z,35.20
2022-12-04T18:24:36.882Z,35.67
2022-12-04T18:27:05.287Z,35.72
2022-12-04T18:29:32.776Z,35.88
2022-12-04T18:32:00.275Z,38.80
2022-12-04T18:34:27.760Z,37.47
2022-12-04T18:36:55.247Z,32.70
2022-12-04T18:39:25.439Z,34.50
2022-12-04T18:41:56.928Z,35.60
2022-12-04T18:44:24.912Z,35.40
2022-12-04T18:46:53.468Z,36.67
2022-12-04T18:49:20.840Z,36.45
2022-12-04T18:51:49.849Z,31.30
2022-12-04T18:54:22.022Z,40.63
2022-12-04T18:56:50.372Z,33.63
2022-12-04T18:59:25.028Z,34.50
2022-12-04T19:01:54.473Z,32.83
2022-12-04T19:04:26.470Z,34.15
2022-12-04T19:06:56.211Z,38.13
2022-12-04T19:12:15.816Z,34.90
2022-12-04T19:14:43.291Z,35.78
2022-12-04T19:17:11.390Z,36.13
2022-12-04T19:19:38.946Z,34.97
2022-12-04T19:22:06.518Z,33.40
2022-12-04T19:24:33.965Z,34.50
2022-12-04T19:27:09.851Z,36.47
2022-12-04T19:29:40.750Z,34.92
2022-12-04T19:32:10.106Z,34.97
2022-12-04T19:34:37.610Z,36.13
2022-12-04T19:37:05.378Z,35.15
2022-12-04T19:39:34.251Z,36.35
2022-12-04T19:42:01.669Z,35.78
2022-12-04T19:47:18.510Z,40.17
2022-12-04T19:49:46.562Z,35.28
2022-12-04T19:52:14.707Z,37.33
2022-12-04T19:54:42.213Z,34.10
2022-12-04T19:57:09.983Z,37.28
2022-12-04T19:59:41.764Z,36.40
2022-12-04T20:02:12.360Z,38.20
2022-12-04T20:04:39.993Z,37.53
2022-12-04T20:07:10.027Z,42.05
2022-12-04T20:09:37.671Z,39.83
2022-12-04T20:12:11.157Z,42.72
2022-12-04T20:14:38.717Z,38.75
2022-12-04T20:17:06.316Z,40.70
2022-12-04T20:19:33.796Z,38.40
2022-12-04T20:22:02.250Z,40.10
2022-12-04T20:24:30.458Z,40.17
2022-12-04T20:26:57.933Z,42.80
2022-12-04T20:29:25.351Z,38.25
2022-12-04T20:31:52.844Z,38.25
2022-12-04T20:34:20.533Z,41.90
2022-12-04T20:36:49.419Z,39.60
2022-12-04T20:39:19.734Z,41.80
2022-12-04T20:41:47.804Z,47.47
2022-12-04T20:44:18.707Z,44.22
2022-12-04T20:46:47.156Z,43.53
2022-12-04T20:49:21.744Z,39.63
2022-12-04T20:51:51.862Z,43.95
2022-12-04T20:54:23.055Z,47.80
2022-12-04T20:56:53.139Z,44.50
2022-12-04T20:59:23.669Z,45.47
2022-12-04T21:01:52.324Z,47.15
2022-12-04T21:04:20.207Z,46.90
2022-12-04T21:06:47.701Z,42.33
2022-12-04T21:09:22.781Z,46.47
2022-12-04T21:11:54.830Z,50.58
2022-12-04T21:14:44.955Z,49.38
2022-12-04T21:17:19.442Z,47.85
2022-12-04T21:19:50.419Z,50.13
2022-12-04T21:22:19.848Z,52.43
2022-12-04T21:24:47.338Z,51.58
2022-12-04T21:27:20.662Z,46.25
2022-12-04T21:29:49.812Z,52.33
2022-12-04T21:32:19.462Z,50.00
2022-12-04T21:34:46.901Z,54.08
2022-12-04T21:37:15.076Z,52.88
2022-12-04T21:39:43.235Z,52.83
2022-12-04T21:42:29.278Z,53.83
2022-12-04T21:44:58.632Z,54.92
2022-12-04T21:47:27.077Z,54.83
2022-12-04T21:49:54.882Z,58.38
2022-12-04T21:52:22.698Z,55.10
2022-12-04T21:54:54.781Z,53.72
2022-12-04T21:57:23.569Z,53.85
2022-12-04T21:59:52.274Z,53.53
2022-12-04T22:02:20.142Z,54.53
2022-12-04T22:04:58.088Z,58.17
2022-12-04T22:07:28.376Z,53.08
2022-12-04T22:10:11.529Z,55.22
2022-12-04T22:12:49.408Z,55.42
2022-12-04T22:16:20.839Z,54.92
2022-12-04T22:18:48.438Z,56.22
2022-12-04T22:21:16.674Z,55.17
2022-12-04T22:23:44.112Z,59.90
2022-12-04T22:26:16.560Z,56.00
2022-12-04T22:28:44.006Z,57.35
2022-12-04T22:31:15.634Z,54.60
2022-12-04T22:36:18.623Z,55.92
2022-12-04T22:39:07.992Z,57.17
2022-12-04T22:41:34.753Z,53.50
2022-12-04T22:44:02.237Z,59.15
2022-12-04T22:46:29.769Z,61.20
2022-12-04T22:48:59.301Z,64.95
2022-12-04T22:51:28.255Z,56.83
2022-12-04T22:53:58.310Z,58.15
2022-12-04T22:56:31.478Z,57.92
2022-12-04T22:59:00.345Z,55.85
2022-12-04T23:01:34.163Z,57.53
2022-12-04T23:04:03.849Z,61.17
2022-12-04T23:06:33.738Z,57.45
2022-12-04T23:09:07.290Z,53.45
2022-12-04T23:11:36.028Z,54.80
2022-12-04T23:14:06.698Z,59.17
2022-12-04T23:16:37.645Z,60.65
2022-12-04T23:19:08.513Z,57.03
2022-12-04T23:21:35.980Z,57.50
2022-12-04T23:24:04.217Z,53.15
2022-12-04T23:26:39.084Z,54.95
2022-12-04T23:29:29.780Z,57.88
2022-12-04T23:31:55.057Z,60.75
2022-12-04T23:34:22.636Z,60.35
2022-12-04T23:36:50.004Z,56.40
2022-12-04T23:39:17.384Z,56.70
2022-12-04T23:41:44.855Z,52.83
2022-12-04T23:44:12.213Z,59.33
2022-12-04T23:46:39.868Z,55.70
2022-12-04T23:49:07.329Z,56.38
2022-12-04T23:51:34.736Z,52.95
2022-12-04T23:54:02.175Z,52.20
2022-12-04T23:56:29.597Z,60.13
2022-12-04T23:58:58.193Z,50.45
